الصفحة الرئيسية
METAR-TAF:

METAR-TAF

مطار :

مطار أنتونيو بي وان بات الدولي

Hagåtña, غوام, الولايات المتحدة

دائرة عرض: 13-29N, خط طول: 144-48E, ارتفاع: 91 متر

مراقبة الطقس الحالي

تاريخ ووقت الإصدار 1ساعة و 10 دقيقة قبل الساعة 03:11UTC
ريح 15 عقدة من الشرق
درجة الحرارة 31°درجة مئوية
الرطوبة 63%
ضغط 1012 hPa
الرؤية: 16.1 كم
غيوم متفرقة على ارتفاع 2600 قدم

METAR: PGUM 250311Z 09015KT 10SM SCT026 31/23 A2989 RMK AO2 T03110228

زمن: 14:21 (04:21 UTC)

توقعات

تاريخ ووقت الإصدار 4ساعات و 41 دقيقة قبل الساعة 23:40UTC
التوقعات صالحة من25 الساعة 00 UTC إلى 26 الساعة 06 UTC
ريح 14 عقدة من الشرق تتزايد حتى 20 عقدة
الرؤية: 10 كم
غيوم متفرقة على ارتفاع 2500 قدم
غيوم متفرقة على ارتفاع 7000 قدم
من 25 الساعة 0900 UTC
ريح 7 عقدة من الشرق
الرؤية: 10 كم
غيوم قليلة على ارتفاع 2500 قدم
زخات في الجوار,

TAF: PGUM 242340Z 2500/2606 08014G20KT P6SM SCT025 SCT070 FM250900 08007KT P6SM VCSH FEW025

أرصاد الطقس والتوقعات من أكثر من 4000 مطار (تقارير الطقس للمطار METAR والتنبؤ بالطقس بالمطارTAF).

المحطات المتاحة هي النقط الصفراء والحمراء على الخريطة.

حرك المؤشر فوق النقطة لمعرفة اسم المحطة.

ثم انقر لمعرفة أرصاد وتوقعات الطقس.

لتغيير الخارطة: اضغط على الأزرار الخضراء مع رمز الصليب الأسود للتكبير. على الزر الأخضر مع شرطة للتصغير، أو على الأسهم الخضراء للخرائط المجاورة.


METAR-TAF: